createdAt,value
2023-04-21T00:00:31.194Z,90.36
2023-04-21T00:01:31.178Z,90.16
2023-04-21T00:02:31.704Z,90.06
2023-04-21T00:03:31.296Z,90.06
2023-04-21T00:04:31.318Z,90.16
2023-04-21T00:05:31.326Z,90.16
2023-04-21T00:06:31.131Z,90.01
2023-04-21T00:07:31.148Z,89.91
2023-04-21T00:08:31.106Z,89.81
2023-04-21T00:09:31.091Z,89.81
2023-04-21T00:10:31.095Z,89.70
2023-04-21T00:11:31.069Z,90.06
2023-04-21T00:12:31.067Z,90.26
2023-04-21T00:13:31.139Z,90.67
2023-04-21T00:14:31.044Z,90.88
2023-04-21T00:15:31.029Z,91.08
2023-04-21T00:16:31.096Z,91.39
2023-04-21T00:17:31.066Z,91.19
2023-04-21T00:18:31.008Z,91.08
2023-04-21T00:19:31.003Z,91.19
2023-04-21T00:20:30.982Z,91.29
2023-04-21T00:21:30.968Z,91.19
2023-04-21T00:22:31.061Z,91.08
2023-04-21T00:23:30.958Z,91.08
2023-04-21T00:24:30.938Z,91.08
2023-04-21T00:25:30.932Z,91.08
2023-04-21T00:26:30.928Z,91.19
2023-04-21T00:27:30.925Z,91.29
2023-04-21T00:28:30.922Z,91.29
2023-04-21T00:29:30.889Z,91.49
2023-04-21T00:30:30.887Z,91.29
2023-04-21T00:31:30.874Z,90.98
2023-04-21T00:32:30.918Z,90.78
2023-04-21T00:33:30.854Z,90.53
2023-04-21T00:34:30.840Z,90.42
2023-04-21T00:35:30.826Z,90.42
2023-04-21T00:36:30.819Z,90.42
2023-04-21T00:37:30.824Z,90.67
2023-04-21T00:38:30.806Z,90.78
2023-04-21T00:39:30.776Z,90.88
2023-04-21T00:40:30.814Z,90.88
2023-04-21T00:41:30.765Z,90.88
2023-04-21T00:42:30.749Z,90.88
2023-04-21T00:43:30.770Z,90.98
2023-04-21T00:44:30.740Z,90.88
2023-04-21T00:45:30.727Z,90.88
2023-04-21T00:46:30.763Z,90.98
2023-04-21T00:47:30.728Z,91.19
2023-04-21T00:48:30.778Z,91.08
2023-04-21T00:49:30.680Z,91.29
2023-04-21T00:50:30.719Z,91.39
2023-04-21T00:51:30.653Z,91.49
2023-04-21T00:52:30.646Z,91.39
2023-04-21T00:53:30.657Z,91.08
2023-04-21T00:54:30.632Z,90.88
2023-04-21T00:55:30.607Z,90.88
2023-04-21T00:56:30.621Z,90.98
2023-04-21T00:57:30.622Z,90.78
2023-04-21T00:58:30.585Z,90.67
2023-04-21T00:59:30.626Z,90.78
2023-04-21T01:00:30.654Z,90.88
2023-04-21T01:01:30.661Z,90.67
2023-04-21T01:02:31.062Z,90.47
2023-04-21T01:03:30.822Z,90.32
2023-04-21T01:04:30.522Z,90.22
2023-04-21T01:05:30.508Z,90.26
2023-04-21T01:06:30.512Z,90.26
2023-04-21T01:07:30.517Z,90.22
2023-04-21T01:08:30.488Z,90.12
2023-04-21T01:09:30.481Z,89.91
2023-04-21T01:10:30.461Z,89.91
2023-04-21T01:11:30.460Z,89.91
2023-04-21T01:12:30.453Z,89.60
2023-04-21T01:13:30.431Z,89.60
2023-04-21T01:14:30.418Z,89.70
2023-04-21T01:15:30.419Z,89.70
2023-04-21T01:16:30.427Z,89.70
2023-04-21T01:17:30.449Z,89.81
2023-04-21T01:18:30.378Z,90.06
2023-04-21T01:19:30.366Z,90.16
2023-04-21T01:20:30.351Z,90.26
2023-04-21T01:21:30.355Z,90.16
2023-04-21T01:22:30.363Z,90.26
2023-04-21T01:23:30.333Z,90.16
2023-04-21T01:24:30.309Z,90.01
2023-04-21T01:25:30.358Z,89.60
2023-04-21T01:26:30.308Z,89.19
2023-04-21T01:27:30.320Z,88.89
2023-04-21T01:28:30.280Z,88.64
2023-04-21T01:29:30.269Z,88.43
2023-04-21T01:30:30.252Z,88.43
2023-04-21T01:31:30.284Z,88.53
2023-04-21T01:32:30.454Z,88.74
2023-04-21T01:33:30.220Z,88.68
2023-04-21T01:34:30.207Z,88.43
2023-04-21T01:35:30.211Z,88.43
2023-04-21T01:36:30.188Z,88.23
2023-04-21T01:37:30.194Z,88.02
2023-04-21T01:38:30.189Z,87.71
2023-04-21T01:39:30.156Z,87.40
2023-04-21T01:40:30.149Z,86.95
2023-04-21T01:41:30.140Z,86.85
2023-04-21T01:42:30.130Z,86.95
2023-04-21T01:43:30.176Z,87.05
2023-04-21T01:44:30.132Z,86.75
2023-04-21T01:45:30.098Z,87.05
2023-04-21T01:46:30.181Z,87.05
2023-04-21T01:47:30.105Z,87.20
2023-04-21T01:48:30.080Z,87.16
2023-04-21T01:49:30.067Z,86.85
2023-04-21T01:50:30.056Z,86.44
2023-04-21T01:51:30.039Z,86.33
2023-04-21T01:52:30.076Z,86.24
2023-04-21T01:53:30.028Z,86.33
2023-04-21T01:54:30.040Z,86.44
2023-04-21T01:55:29.996Z,86.75
2023-04-21T01:56:30.007Z,87.10
2023-04-21T01:57:30.046Z,87.20
2023-04-21T01:58:30.014Z,87.30
2023-04-21T01:59:29.992Z,87.30
2023-04-21T02:00:29.946Z,86.65
2023-04-21T02:01:29.970Z,86.44
2023-04-21T02:02:30.020Z,85.93
2023-04-21T02:03:30.027Z,85.93
2023-04-21T02:04:30.039Z,85.82
2023-04-21T02:05:29.900Z,85.93
2023-04-21T02:06:29.887Z,85.62
2023-04-21T02:07:29.869Z,85.47
2023-04-21T02:08:29.884Z,85.38
2023-04-21T02:09:29.860Z,85.93
2023-04-21T02:10:29.832Z,86.03
2023-04-21T02:11:29.839Z,85.82
2023-04-21T02:12:29.819Z,86.13
2023-04-21T02:13:29.850Z,86.03
2023-04-21T02:14:29.796Z,86.03
2023-04-21T02:15:29.840Z,86.33
2023-04-21T02:16:29.848Z,86.58
2023-04-21T02:17:29.822Z,86.48
2023-04-21T02:18:29.789Z,86.33
2023-04-21T02:19:29.741Z,86.03
2023-04-21T02:20:29.730Z,86.03
2023-04-21T02:21:29.724Z,85.82
2023-04-21T02:22:29.711Z,85.72
2023-04-21T02:23:29.719Z,85.52
2023-04-21T02:24:29.693Z,85.62
2023-04-21T02:25:29.684Z,86.13
2023-04-21T02:26:29.680Z,86.33
2023-04-21T02:27:29.673Z,85.82
2023-04-21T02:28:29.707Z,86.03
2023-04-21T02:29:29.646Z,86.03
2023-04-21T02:30:29.636Z,85.93
2023-04-21T02:31:29.641Z,85.62
2023-04-21T02:32:29.808Z,85.52
2023-04-21T02:33:29.633Z,85.72
2023-04-21T02:34:29.588Z,85.62
2023-04-21T02:35:29.576Z,85.06
2023-04-21T02:36:29.576Z,85.38
2023-04-21T02:37:29.678Z,85.06
2023-04-21T02:38:29.558Z,84.86
2023-04-21T02:39:29.538Z,85.27
2023-04-21T02:40:29.512Z,85.17
2023-04-21T02:41:29.511Z,85.47
2023-04-21T02:42:29.503Z,85.27
2023-04-21T02:43:29.513Z,85.27
2023-04-21T02:44:29.496Z,85.68
2023-04-21T02:45:29.482Z,85.41
2023-04-21T02:46:29.497Z,85.38
2023-04-21T02:47:29.481Z,85.17
2023-04-21T02:48:29.488Z,85.58
2023-04-21T02:49:29.436Z,85.17
2023-04-21T02:50:29.411Z,85.27
2023-04-21T02:51:29.414Z,85.38
2023-04-21T02:52:29.388Z,85.17
2023-04-21T02:53:29.403Z,85.27
2023-04-21T02:54:29.373Z,85.27
2023-04-21T02:55:29.362Z,85.11
2023-04-21T02:56:29.346Z,84.76
2023-04-21T02:57:29.384Z,85.11
2023-04-21T02:58:29.324Z,85.11
2023-04-21T02:59:29.317Z,85.31
2023-04-21T03:00:29.321Z,85.31
2023-04-21T03:01:29.296Z,85.41
2023-04-21T03:02:29.521Z,85.31
2023-04-21T03:03:29.504Z,85.11
2023-04-21T03:04:29.296Z,84.90
2023-04-21T03:05:29.248Z,84.76
2023-04-21T03:06:29.243Z,85.00
2023-04-21T03:07:29.276Z,85.00
2023-04-21T03:08:29.225Z,84.90
2023-04-21T03:09:29.213Z,84.90
2023-04-21T03:10:29.201Z,84.66
2023-04-21T03:11:29.186Z,84.55
2023-04-21T03:12:29.192Z,84.55
2023-04-21T03:13:29.209Z,84.55
2023-04-21T03:14:29.152Z,84.69
2023-04-21T03:15:29.156Z,84.34
2023-04-21T03:16:29.144Z,84.34
2023-04-21T03:17:30.977Z,84.55
2023-04-21T03:18:29.123Z,84.34
2023-04-21T03:19:29.100Z,84.25
2023-04-21T03:20:29.082Z,84.14
2023-04-21T03:21:29.098Z,84.14
2023-04-21T03:22:29.070Z,84.14
2023-04-21T03:23:29.115Z,84.14
2023-04-21T03:24:29.044Z,84.04
2023-04-21T03:25:29.036Z,84.34
2023-04-21T03:26:28.973Z,84.04
2023-04-21T03:27:29.018Z,84.14
2023-04-21T03:28:29.044Z,83.83
2023-04-21T03:29:28.996Z,83.59
2023-04-21T03:30:28.999Z,83.49
2023-04-21T03:31:29.025Z,83.18
2023-04-21T03:32:28.994Z,82.97
2023-04-21T03:33:28.926Z,83.69
2023-04-21T03:34:28.895Z,83.59
2023-04-21T03:35:28.884Z,83.63
2023-04-21T03:36:28.865Z,83.83
2023-04-21T03:37:28.917Z,83.53
2023-04-21T03:38:28.926Z,83.18
2023-04-21T03:39:28.888Z,83.18
2023-04-21T03:40:28.874Z,83.07
2023-04-21T03:41:28.866Z,83.18
2023-04-21T03:42:28.848Z,82.97
2023-04-21T03:43:28.822Z,83.28
2023-04-21T03:44:28.827Z,83.59
2023-04-21T03:45:28.838Z,83.63
2023-04-21T03:46:28.852Z,83.49
2023-04-21T03:47:28.793Z,83.73
2023-04-21T03:48:28.802Z,83.83
2023-04-21T03:49:28.728Z,84.04
2023-04-21T03:50:28.714Z,84.04
2023-04-21T03:51:28.708Z,84.25
2023-04-21T03:52:28.711Z,84.04
2023-04-21T03:53:28.694Z,83.94
2023-04-21T03:54:28.678Z,84.04
2023-04-21T03:55:28.742Z,84.14
2023-04-21T03:56:28.668Z,83.94
2023-04-21T03:57:28.715Z,84.14
2023-04-21T03:58:28.630Z,84.34
2023-04-21T03:59:28.628Z,84.55
2023-04-21T04:00:28.609Z,84.76
2023-04-21T04:01:28.592Z,84.66
2023-04-21T04:02:28.713Z,84.04
2023-04-21T04:03:28.746Z,84.25
2023-04-21T04:04:28.818Z,84.14
2023-04-21T04:05:28.648Z,84.66
2023-04-21T04:06:28.578Z,84.66
2023-04-21T04:07:28.554Z,84.80
2023-04-21T04:08:28.546Z,85.11
2023-04-21T04:09:28.531Z,85.00
2023-04-21T04:10:28.520Z,85.21
2023-04-21T04:11:28.497Z,85.11
2023-04-21T04:12:28.578Z,84.90
2023-04-21T04:13:28.475Z,84.80
2023-04-21T04:14:28.455Z,85.00
2023-04-21T04:15:28.458Z,85.11
2023-04-21T04:16:28.492Z,85.00
2023-04-21T04:17:28.476Z,85.31
2023-04-21T04:18:28.417Z,85.52
2023-04-21T04:19:28.411Z,85.31
2023-04-21T04:20:28.399Z,85.31
2023-04-21T04:21:28.397Z,85.41
2023-04-21T04:22:28.382Z,85.31
2023-04-21T04:23:28.371Z,85.41
2023-04-21T04:24:28.352Z,85.41
2023-04-21T04:25:28.353Z,85.62
2023-04-21T04:26:28.336Z,85.72
2023-04-21T04:27:28.337Z,85.72
2023-04-21T04:28:28.314Z,86.13
2023-04-21T04:29:28.299Z,85.82
2023-04-21T04:30:28.287Z,85.72
2023-04-21T04:31:28.331Z,85.31
2023-04-21T04:32:28.435Z,85.21
2023-04-21T04:33:28.276Z,84.86
2023-04-21T04:34:28.248Z,84.86
2023-04-21T04:35:28.240Z,84.86
2023-04-21T04:36:28.215Z,84.96
2023-04-21T04:37:28.284Z,84.96
2023-04-21T04:38:28.211Z,85.17
2023-04-21T04:39:28.191Z,84.86
2023-04-21T04:40:28.246Z,84.66
2023-04-21T04:41:28.173Z,84.86
2023-04-21T04:42:28.151Z,84.86
2023-04-21T04:43:28.438Z,84.66
2023-04-21T04:44:28.157Z,84.25
2023-04-21T04:45:28.125Z,84.76
2023-04-21T04:46:28.147Z,84.25
2023-04-21T04:47:28.184Z,84.31
2023-04-21T04:48:28.088Z,84.92
2023-04-21T04:49:28.089Z,84.20
2023-04-21T04:50:28.073Z,83.59
2023-04-21T04:51:28.071Z,83.14
2023-04-21T04:52:28.097Z,83.14
2023-04-21T04:53:28.043Z,82.18
2023-04-21T04:54:28.024Z,81.43
2023-04-21T04:55:28.043Z,80.91
2023-04-21T04:56:28.014Z,80.46
2023-04-21T04:57:28.034Z,80.16
2023-04-21T04:58:28.054Z,79.75
2023-04-21T04:59:29.100Z,78.93
2023-04-21T05:00:27.962Z,78.69
2023-04-21T05:01:27.968Z,79.00
2023-04-21T05:02:28.132Z,79.06
2023-04-21T05:03:28.066Z,77.70
2023-04-21T05:04:28.366Z,77.29
2023-04-21T05:05:27.951Z,76.26
2023-04-21T05:06:27.903Z,77.25
2023-04-21T05:07:27.903Z,75.41
2023-04-21T05:08:27.906Z,75.17
2023-04-21T05:09:27.892Z,75.48
2023-04-21T05:10:28.004Z,75.00
2023-04-21T05:11:27.854Z,76.33
2023-04-21T05:12:27.881Z,75.21
2023-04-21T05:13:27.907Z,76.12
2023-04-21T05:14:27.818Z,75.68
2023-04-21T05:15:27.863Z,74.22
2023-04-21T05:16:27.945Z,73.06
2023-04-21T05:17:27.850Z,73.06
2023-04-21T05:18:27.796Z,73.30
2023-04-21T05:19:27.779Z,73.36
2023-04-21T05:20:27.757Z,74.18
2023-04-21T05:21:27.956Z,73.03
2023-04-21T05:22:27.748Z,72.28
2023-04-21T05:23:27.770Z,71.84
2023-04-21T05:24:27.741Z,70.78
2023-04-21T05:25:27.702Z,70.10
2023-04-21T05:26:27.813Z,71.23
2023-04-21T05:27:27.714Z,70.78
2023-04-21T05:28:27.692Z,69.97
2023-04-21T05:29:27.673Z,69.63
2023-04-21T05:30:27.663Z,68.95
2023-04-21T05:31:27.743Z,70.95
2023-04-21T05:32:27.702Z,71.23
2023-04-21T05:33:27.642Z,70.14
2023-04-21T05:34:27.611Z,69.60
2023-04-21T05:35:27.595Z,68.96
2023-04-21T05:36:27.606Z,67.91
2023-04-21T05:37:27.585Z,67.40
2023-04-21T05:38:27.617Z,66.31
2023-04-21T05:39:27.559Z,68.28
2023-04-21T05:40:27.558Z,65.84
2023-04-21T05:41:27.543Z,67.91
2023-04-21T05:42:27.545Z,67.26
2023-04-21T05:43:27.560Z,68.68
2023-04-21T05:44:27.533Z,68.08
2023-04-21T05:45:27.528Z,66.41
2023-04-21T05:46:27.509Z,66.72
2023-04-21T05:47:27.504Z,66.79
2023-04-21T05:48:27.484Z,65.77
2023-04-21T05:49:27.450Z,67.53
2023-04-21T05:50:27.451Z,68.10
2023-04-21T05:51:27.430Z,69.63
2023-04-21T05:52:27.437Z,69.23
2023-04-21T05:53:27.424Z,69.06
2023-04-21T05:54:27.409Z,70.31
2023-04-21T05:55:27.396Z,69.56
2023-04-21T05:56:27.397Z,69.23
2023-04-21T05:57:27.444Z,67.87
2023-04-21T05:58:27.688Z,67.63
2023-04-21T05:59:27.395Z,67.26
2023-04-21T06:00:27.437Z,67.43
2023-04-21T06:01:27.423Z,67.53
2023-04-21T06:02:27.510Z,67.57
2023-04-21T06:03:27.527Z,66.08
2023-04-21T06:04:27.602Z,64.64
2023-04-21T06:05:27.331Z,65.17
2023-04-21T06:06:27.273Z,65.61
2023-04-21T06:07:27.300Z,64.76
2023-04-21T06:08:27.268Z,63.75
2023-04-21T06:09:27.327Z,64.97
2023-04-21T06:10:27.308Z,64.03
2023-04-21T06:11:27.221Z,64.03
2023-04-21T06:12:27.214Z,63.62
2023-04-21T06:13:27.233Z,62.68
2023-04-21T06:14:27.209Z,62.31
2023-04-21T06:15:27.184Z,61.47
2023-04-21T06:16:27.387Z,60.06
2023-04-21T06:17:27.207Z,61.37
2023-04-21T06:18:27.165Z,61.17
2023-04-21T06:19:27.137Z,60.97
2023-04-21T06:20:27.151Z,61.60
2023-04-21T06:21:27.129Z,63.32
2023-04-21T06:22:27.117Z,65.27
2023-04-21T06:23:27.107Z,62.68
2023-04-21T06:24:27.108Z,61.51
2023-04-21T06:25:27.074Z,60.77
2023-04-21T06:26:27.067Z,62.31
2023-04-21T06:27:27.098Z,62.92
2023-04-21T06:28:27.045Z,62.65
2023-04-21T06:29:27.026Z,61.66
2023-04-21T06:30:27.025Z,64.43
2023-04-21T06:31:27.045Z,63.35
2023-04-21T06:32:27.061Z,61.71
2023-04-21T06:33:26.995Z,62.11
2023-04-21T06:34:26.992Z,60.20
2023-04-21T06:35:26.980Z,59.61
2023-04-21T06:36:26.971Z,56.12
2023-04-21T06:37:26.964Z,58.09
2023-04-21T06:38:26.944Z,59.21
2023-04-21T06:39:26.921Z,57.72
2023-04-21T06:40:27.078Z,59.95
2023-04-21T06:41:26.915Z,62.37
2023-04-21T06:42:26.913Z,62.68
2023-04-21T06:43:26.882Z,64.36
2023-04-21T06:44:26.884Z,64.26
2023-04-21T06:45:26.902Z,64.46
2023-04-21T06:46:26.873Z,63.55
2023-04-21T06:47:27.007Z,62.75
2023-04-21T06:48:26.857Z,62.45
2023-04-21T06:49:26.825Z,59.72
2023-04-21T06:50:26.863Z,61.14
2023-04-21T06:51:26.806Z,59.00
2023-04-21T06:52:26.834Z,57.23
2023-04-21T06:53:26.782Z,56.90
2023-04-21T06:54:26.772Z,55.77
2023-04-21T06:55:26.762Z,58.56
2023-04-21T06:56:26.760Z,58.92
2023-04-21T06:57:26.766Z,61.30
2023-04-21T06:58:26.740Z,61.74
2023-04-21T06:59:26.740Z,63.11
2023-04-21T07:00:26.744Z,64.83
2023-04-21T07:01:26.789Z,66.41
2023-04-21T07:02:26.920Z,68.55
2023-04-21T07:03:26.693Z,66.99
2023-04-21T07:04:26.693Z,66.49
2023-04-21T07:05:26.651Z,67.77
2023-04-21T07:06:26.658Z,66.55
2023-04-21T07:07:26.682Z,65.91
2023-04-21T07:08:26.647Z,65.41
2023-04-21T07:09:26.618Z,66.29
2023-04-21T07:10:26.638Z,65.48
2023-04-21T07:11:26.595Z,64.73
2023-04-21T07:12:26.698Z,65.65
2023-04-21T07:13:26.681Z,66.02
2023-04-21T07:14:26.589Z,66.08
2023-04-21T07:15:26.557Z,63.72
2023-04-21T07:16:26.630Z,64.73
2023-04-21T07:17:26.800Z,64.20
2023-04-21T07:18:26.528Z,63.39
2023-04-21T07:19:26.518Z,63.76
2023-04-21T07:20:26.559Z,62.85
2023-04-21T07:21:26.494Z,62.99
2023-04-21T07:22:26.507Z,60.74
2023-04-21T07:23:26.473Z,60.94
2023-04-21T07:24:26.477Z,60.13
2023-04-21T07:25:26.453Z,61.04
2023-04-21T07:26:26.445Z,61.68
2023-04-21T07:27:26.445Z,60.66
2023-04-21T07:28:26.422Z,62.62
2023-04-21T07:29:26.439Z,61.94
2023-04-21T07:30:26.485Z,61.94
2023-04-21T07:31:26.454Z,61.97
2023-04-21T07:32:26.419Z,62.78
2023-04-21T07:33:26.356Z,63.42
2023-04-21T07:34:26.366Z,63.01
2023-04-21T07:35:26.339Z,64.87
2023-04-21T07:36:26.383Z,64.23
2023-04-21T07:37:26.355Z,63.82
2023-04-21T07:38:26.328Z,64.13
2023-04-21T07:39:26.323Z,64.73
2023-04-21T07:40:26.311Z,64.03
2023-04-21T07:41:26.283Z,64.43
2023-04-21T07:42:26.310Z,63.32
2023-04-21T07:43:26.274Z,63.52
2023-04-21T07:44:26.252Z,63.52
2023-04-21T07:45:26.231Z,62.98
2023-04-21T07:46:26.241Z,62.75
2023-04-21T07:47:26.320Z,60.10
2023-04-21T07:48:26.212Z,56.48
2023-04-21T07:49:26.199Z,56.85
2023-04-21T07:50:26.200Z,53.90
2023-04-21T07:51:26.167Z,55.44
2023-04-21T07:52:26.305Z,53.09
2023-04-21T07:53:26.156Z,52.11
2023-04-21T07:54:26.240Z,50.21
2023-04-21T07:55:26.138Z,49.13
2023-04-21T07:56:26.131Z,47.75
2023-04-21T07:57:26.198Z,48.50
2023-04-21T07:58:26.121Z,51.71
2023-04-21T07:59:26.101Z,54.03
2023-04-21T08:00:26.164Z,54.68
2023-04-21T08:01:26.094Z,55.62
2023-04-21T08:02:26.432Z,54.89
2023-04-21T08:03:26.178Z,54.86
2023-04-21T08:04:26.146Z,54.89
2023-04-21T08:05:28.821Z,55.36
2023-04-21T08:06:26.046Z,55.14
2023-04-21T08:07:26.040Z,54.76
2023-04-21T08:08:26.048Z,54.46
2023-04-21T08:09:26.011Z,55.09
2023-04-21T08:10:25.978Z,56.00
2023-04-21T08:11:25.971Z,58.41
2023-04-21T08:12:25.983Z,59.85
2023-04-21T08:13:25.986Z,59.99
2023-04-21T08:14:26.036Z,63.26
2023-04-21T08:15:25.922Z,60.53
2023-04-21T08:16:25.964Z,58.91
2023-04-21T08:17:25.966Z,54.71
2023-04-21T08:18:26.018Z,52.24
2023-04-21T08:19:25.885Z,49.51
2023-04-21T08:20:25.873Z,50.29
2023-04-21T08:21:25.922Z,50.59
2023-04-21T08:22:25.909Z,49.16
2023-04-21T08:23:25.884Z,44.57
2023-04-21T08:24:25.842Z,42.33
2023-04-21T08:25:25.826Z,42.02
2023-04-21T08:26:25.861Z,42.71
2023-04-21T08:27:25.823Z,45.42
2023-04-21T08:28:25.827Z,47.20
2023-04-21T08:29:25.780Z,47.16
2023-04-21T08:30:25.768Z,45.79
2023-04-21T08:31:25.838Z,44.83
2023-04-21T08:32:25.803Z,43.59
2023-04-21T08:33:25.763Z,41.66
2023-04-21T08:34:27.682Z,40.74
2023-04-21T08:35:25.735Z,40.00
2023-04-21T08:36:29.408Z,40.89
2023-04-21T08:37:25.753Z,45.69
2023-04-21T08:38:25.707Z,46.84
2023-04-21T08:39:25.685Z,48.26
2023-04-21T08:40:25.670Z,45.12
2023-04-21T08:41:25.662Z,44.29
2023-04-21T08:42:25.637Z,43.85
2023-04-21T08:43:25.647Z,43.13
2023-04-21T08:44:25.621Z,42.13
2023-04-21T08:45:25.658Z,41.93
2023-04-21T08:46:25.684Z,43.95
2023-04-21T08:47:25.605Z,43.40
2023-04-21T08:48:25.619Z,45.01
2023-04-21T08:49:25.566Z,42.54
2023-04-21T08:50:25.579Z,42.55
2023-04-21T08:51:25.553Z,44.90
2023-04-21T08:52:25.553Z,46.25
2023-04-21T08:53:25.555Z,48.33
2023-04-21T08:54:25.538Z,46.94
2023-04-21T08:55:25.506Z,42.03
2023-04-21T08:56:25.497Z,43.29
2023-04-21T08:57:25.486Z,40.16
2023-04-21T08:58:25.516Z,41.71
2023-04-21T08:59:25.476Z,41.99
2023-04-21T09:00:25.466Z,41.47
2023-04-21T09:01:25.503Z,43.05
2023-04-21T09:02:25.572Z,39.90
2023-04-21T09:03:26.534Z,37.96
2023-04-21T09:04:25.669Z,39.47
2023-04-21T09:05:25.502Z,40.52
2023-04-21T09:06:25.413Z,37.90
2023-04-21T09:07:25.398Z,41.52
2023-04-21T09:08:25.433Z,44.74
2023-04-21T09:09:25.355Z,46.25
2023-04-21T09:10:25.361Z,50.91
2023-04-21T09:11:25.343Z,51.14
2023-04-21T09:12:25.360Z,50.43
2023-04-21T09:13:25.328Z,53.98
2023-04-21T09:14:25.325Z,50.93
2023-04-21T09:15:25.331Z,50.48
2023-04-21T09:16:25.301Z,46.87
2023-04-21T09:17:25.313Z,49.05
2023-04-21T09:18:25.290Z,48.53
2023-04-21T09:19:25.267Z,50.43
2023-04-21T09:20:25.493Z,48.87
2023-04-21T09:21:25.231Z,49.45
2023-04-21T09:22:25.246Z,48.75
2023-04-21T09:23:25.224Z,48.91
2023-04-21T09:24:25.224Z,46.24
2023-04-21T09:25:25.189Z,45.45
2023-04-21T09:26:25.196Z,43.98
2023-04-21T09:27:25.167Z,41.61
2023-04-21T09:28:25.207Z,42.67
2023-04-21T09:29:25.162Z,41.33
2023-04-21T09:30:25.150Z,42.79
2023-04-21T09:31:25.537Z,46.66
2023-04-21T09:32:25.159Z,42.99
2023-04-21T09:33:31.050Z,43.33
2023-04-21T09:34:25.104Z,43.17
2023-04-21T09:35:25.094Z,40.06
2023-04-21T09:36:25.096Z,40.59
2023-04-21T09:37:25.065Z,43.95
2023-04-21T09:38:25.121Z,42.73
2023-04-21T09:39:40.591Z,40.94
2023-04-21T09:40:25.051Z,45.00
2023-04-21T09:41:25.033Z,43.53
2023-04-21T09:42:25.013Z,41.38
2023-04-21T09:43:25.401Z,43.09
2023-04-21T09:44:25.167Z,41.22
2023-04-21T09:45:39.030Z,41.58
2023-04-21T09:46:24.995Z,45.09
2023-04-21T09:47:25.032Z,43.39
2023-04-21T09:48:24.969Z,39.70
2023-04-21T09:49:24.996Z,39.67
2023-04-21T09:50:51.192Z,37.83
2023-04-21T09:51:40.464Z,40.16
2023-04-21T09:52:24.913Z,38.54
2023-04-21T09:53:24.928Z,41.71
2023-04-21T09:55:24.893Z,38.93
2023-04-21T09:56:24.865Z,40.95
2023-04-21T09:57:24.865Z,39.64
2023-04-21T09:58:24.909Z,39.25
2023-04-21T09:59:24.839Z,40.28
2023-04-21T10:00:24.817Z,41.75
2023-04-21T10:01:24.962Z,36.82
2023-04-21T10:02:24.963Z,39.36
2023-04-21T10:03:24.883Z,40.22
2023-04-21T10:04:25.285Z,39.94
2023-04-21T10:05:24.868Z,40.08
2023-04-21T10:06:24.838Z,43.03
2023-04-21T10:07:24.751Z,39.59
2023-04-21T10:08:24.810Z,42.57
2023-04-21T10:09:24.745Z,39.82
2023-04-21T10:10:24.743Z,39.64
2023-04-21T10:11:24.723Z,40.06
2023-04-21T10:12:24.698Z,41.16
2023-04-21T10:13:24.762Z,41.33
2023-04-21T10:14:24.684Z,43.51
2023-04-21T10:15:24.675Z,41.96
2023-04-21T10:16:24.741Z,40.42
2023-04-21T10:17:24.695Z,39.46
2023-04-21T10:18:24.885Z,39.96
2023-04-21T10:19:24.625Z,38.13
2023-04-21T10:20:24.630Z,37.30
2023-04-21T10:21:24.646Z,41.11
2023-04-21T10:22:24.586Z,39.95
2023-04-21T10:23:25.419Z,40.44
2023-04-21T10:24:24.571Z,38.31
2023-04-21T10:25:24.602Z,38.78
2023-04-21T10:26:24.562Z,39.95
2023-04-21T10:27:24.547Z,40.53
2023-04-21T10:28:24.548Z,38.85
2023-04-21T10:29:24.528Z,42.33
2023-04-21T10:30:24.527Z,40.40
2023-04-21T10:31:24.535Z,36.34
2023-04-21T10:32:24.509Z,36.44
2023-04-21T10:33:24.603Z,37.12
2023-04-21T10:34:24.479Z,38.15
2023-04-21T10:35:24.487Z,37.90
2023-04-21T10:36:24.461Z,36.82
2023-04-21T10:37:24.464Z,35.26
2023-04-21T10:38:24.439Z,35.64
2023-04-21T10:39:24.416Z,36.50
2023-04-21T10:40:36.469Z,38.17
2023-04-21T10:41:24.409Z,39.04
2023-04-21T10:42:24.430Z,38.10
2023-04-21T10:43:24.394Z,37.77
2023-04-21T10:44:24.358Z,37.41
2023-04-21T10:45:24.391Z,35.29
2023-04-21T10:46:24.391Z,36.19
2023-04-21T10:47:24.397Z,36.49
2023-04-21T10:48:24.344Z,35.39
2023-04-21T10:49:24.321Z,38.23
2023-04-21T10:50:24.354Z,38.93
2023-04-21T10:51:24.398Z,37.19
2023-04-21T10:52:24.285Z,37.05
2023-04-21T10:53:24.296Z,35.42
2023-04-21T10:54:24.278Z,38.01
2023-04-21T10:55:24.252Z,36.64
2023-04-21T10:56:24.246Z,35.82
2023-04-21T10:57:24.281Z,36.95
2023-04-21T10:58:24.249Z,38.29
2023-04-21T10:59:24.221Z,37.38
2023-04-21T11:00:24.469Z,39.42
2023-04-21T11:01:24.274Z,39.50
2023-04-21T11:02:24.306Z,39.96
2023-04-21T11:03:24.363Z,39.26
2023-04-21T11:04:25.065Z,36.44
2023-04-21T11:05:24.216Z,35.54
2023-04-21T11:06:24.131Z,38.40
2023-04-21T11:07:24.129Z,38.92
2023-04-21T11:08:24.184Z,41.24
2023-04-21T11:09:24.128Z,39.15
2023-04-21T11:10:24.103Z,37.77
2023-04-21T11:11:24.089Z,35.54
2023-04-21T11:12:24.068Z,34.81
2023-04-21T11:13:24.065Z,38.09
2023-04-21T11:14:24.095Z,40.22
2023-04-21T11:15:24.085Z,39.68
2023-04-21T11:16:24.058Z,37.40
2023-04-21T11:17:24.099Z,37.47
2023-04-21T11:18:24.000Z,36.47
2023-04-21T11:19:23.997Z,36.05
2023-04-21T11:20:24.010Z,36.37
2023-04-21T11:21:23.981Z,37.98
2023-04-21T11:22:23.974Z,37.90
2023-04-21T11:23:24.018Z,37.84
2023-04-21T11:24:23.943Z,42.27
2023-04-21T11:25:24.094Z,37.32
2023-04-21T11:26:23.917Z,39.98
2023-04-21T11:27:23.959Z,39.74
2023-04-21T11:28:24.259Z,39.50
2023-04-21T11:29:23.896Z,40.30
2023-04-21T11:30:23.901Z,39.14
2023-04-21T11:31:23.966Z,38.92
2023-04-21T11:32:23.867Z,39.20
2023-04-21T11:33:23.875Z,38.54
2023-04-21T11:34:23.838Z,40.04
2023-04-21T11:35:23.882Z,41.22
2023-04-21T11:36:23.889Z,39.86
2023-04-21T11:37:23.840Z,41.88
2023-04-21T11:38:23.809Z,40.75
2023-04-21T11:39:23.821Z,42.83
2023-04-21T11:40:23.779Z,42.77
2023-04-21T11:41:23.780Z,42.60
2023-04-21T11:42:23.750Z,45.21
2023-04-21T11:43:23.822Z,45.98
2023-04-21T11:44:23.735Z,48.14
2023-04-21T11:45:23.754Z,46.15
2023-04-21T11:46:23.754Z,44.92
2023-04-21T11:47:23.739Z,41.97
2023-04-21T11:48:23.761Z,42.57
2023-04-21T11:49:23.690Z,44.16
2023-04-21T11:50:23.691Z,45.25
2023-04-21T11:51:23.684Z,44.36
2023-04-21T11:52:23.703Z,44.10
2023-04-21T11:53:23.668Z,44.06
2023-04-21T11:54:23.632Z,41.75
2023-04-21T11:55:23.630Z,41.03
2023-04-21T11:56:23.610Z,39.69
2023-04-21T11:57:23.607Z,40.63
2023-04-21T11:58:23.630Z,42.57
2023-04-21T11:59:25.526Z,38.87
2023-04-21T12:00:23.592Z,40.16
2023-04-21T12:01:23.569Z,40.64
2023-04-21T12:02:23.691Z,39.60
2023-04-21T12:03:24.369Z,38.46
2023-04-21T12:04:23.589Z,38.86
2023-04-21T12:05:23.570Z,41.25
2023-04-21T12:06:23.626Z,40.83
2023-04-21T12:07:23.506Z,40.28
2023-04-21T12:08:23.511Z,41.74
2023-04-21T12:09:23.500Z,45.42
2023-04-21T12:10:23.464Z,41.83
2023-04-21T12:11:23.465Z,39.34
2023-04-21T12:12:23.443Z,39.82
2023-04-21T12:13:23.506Z,40.44
2023-04-21T12:14:23.431Z,39.62
2023-04-21T12:15:23.447Z,40.12
2023-04-21T12:16:23.451Z,39.94
2023-04-21T12:17:23.458Z,38.35
2023-04-21T12:18:23.569Z,38.45
2023-04-21T12:19:23.385Z,39.38
2023-04-21T12:20:23.361Z,39.83
2023-04-21T12:21:23.360Z,36.68
2023-04-21T12:22:23.363Z,36.88
2023-04-21T12:23:23.448Z,39.37
2023-04-21T12:24:23.321Z,38.54
2023-04-21T12:25:23.323Z,40.68
2023-04-21T12:26:23.291Z,37.12
2023-04-21T12:27:23.305Z,38.45
2023-04-21T12:28:23.867Z,40.00
2023-04-21T12:29:23.272Z,41.39
2023-04-21T12:30:23.252Z,39.82
2023-04-21T12:31:23.344Z,40.80
2023-04-21T12:32:23.264Z,41.30
2023-04-21T12:33:23.907Z,43.62
2023-04-21T12:34:23.254Z,47.60
2023-04-21T12:35:23.204Z,47.52
2023-04-21T12:36:23.184Z,47.88
2023-04-21T12:37:23.193Z,45.06
2023-04-21T12:38:23.186Z,43.27
2023-04-21T12:39:23.202Z,41.61
2023-04-21T12:40:23.170Z,39.07
2023-04-21T12:41:23.141Z,40.08
2023-04-21T12:42:23.130Z,42.41
2023-04-21T12:43:23.142Z,39.96
2023-04-21T12:44:23.165Z,42.07
2023-04-21T12:45:23.113Z,38.96
2023-04-21T12:46:23.126Z,39.68
2023-04-21T12:47:23.135Z,41.33
2023-04-21T12:48:23.091Z,39.08
2023-04-21T12:49:23.115Z,40.56
2023-04-21T12:50:23.067Z,40.95
2023-04-21T12:51:23.037Z,41.67
2023-04-21T12:52:23.022Z,41.74
2023-04-21T12:53:23.022Z,42.03